createdAt,value
2023-02-14T00:01:37.467Z,5.25
2023-02-14T00:04:44.189Z,6.78
2023-02-14T00:07:46.860Z,4.20
2023-02-14T00:10:49.731Z,7.53
2023-02-14T00:14:10.640Z,6.30
2023-02-14T00:17:13.614Z,14.63
2023-02-14T00:20:16.138Z,6.35
2023-02-14T00:23:19.286Z,6.20
2023-02-14T00:26:21.817Z,4.95
2023-02-14T00:29:28.258Z,7.45
2023-02-14T00:32:30.908Z,5.00
2023-02-14T00:35:38.225Z,5.28
2023-02-14T00:38:40.723Z,4.93
2023-02-14T00:41:44.130Z,10.43
2023-02-14T00:44:46.716Z,4.03
2023-02-14T00:47:49.507Z,4.12
2023-02-14T00:50:54.258Z,4.85
2023-02-14T00:53:57.316Z,3.93
2023-02-14T00:56:59.940Z,3.12
2023-02-14T01:00:03.255Z,4.95
2023-02-14T01:03:07.010Z,6.15
2023-02-14T01:06:10.158Z,8.40
2023-02-14T01:09:12.731Z,6.37
2023-02-14T01:12:15.612Z,6.82
2023-02-14T01:15:18.206Z,6.47
2023-02-14T01:18:21.026Z,2.53
2023-02-14T01:21:27.112Z,6.53
2023-02-14T01:24:31.757Z,5.17
2023-02-14T01:27:36.090Z,4.97
2023-02-14T01:30:38.993Z,7.45
2023-02-14T01:33:42.950Z,6.45
2023-02-14T01:36:45.892Z,5.80
2023-02-14T01:39:48.594Z,10.97
2023-02-14T01:42:51.444Z,7.37
2023-02-14T01:45:54.086Z,3.28
2023-02-14T01:49:04.087Z,7.22
2023-02-14T01:52:10.494Z,8.18
2023-02-14T01:55:17.281Z,6.13
2023-02-14T01:58:22.063Z,8.90
2023-02-14T02:01:25.044Z,5.50
2023-02-14T02:04:32.994Z,6.32
2023-02-14T02:07:36.461Z,4.15
2023-02-14T02:10:39.459Z,8.53
2023-02-14T02:13:42.024Z,5.95
2023-02-14T02:17:01.283Z,5.95
2023-02-14T02:20:22.164Z,8.07
2023-02-14T02:23:31.176Z,6.55
2023-02-14T02:27:14.071Z,6.70
2023-02-14T02:30:36.875Z,4.85
2023-02-14T02:33:48.348Z,5.87
2023-02-14T02:37:07.117Z,8.80
2023-02-14T02:40:19.711Z,5.35
2023-02-14T02:43:53.826Z,5.40
2023-02-14T02:47:05.396Z,6.07
2023-02-14T02:50:39.378Z,5.75
2023-02-14T02:53:55.732Z,5.82
2023-02-14T02:57:01.462Z,3.90
2023-02-14T03:00:06.477Z,3.53
2023-02-14T03:03:29.539Z,5.72
2023-02-14T03:06:32.599Z,8.18
2023-02-14T03:09:41.632Z,6.20
2023-02-14T03:13:14.799Z,4.87
2023-02-14T03:16:26.056Z,5.43
2023-02-14T03:20:01.194Z,7.93
2023-02-14T03:23:12.030Z,2.90
2023-02-14T03:26:17.724Z,3.78
2023-02-14T03:29:29.545Z,6.60
2023-02-14T03:32:53.369Z,4.73
2023-02-14T03:36:09.067Z,4.93
2023-02-14T03:39:23.667Z,5.32
2023-02-14T03:42:30.674Z,10.80
2023-02-14T03:45:37.564Z,5.20
2023-02-14T03:48:41.027Z,4.37
2023-02-14T03:51:45.333Z,6.10
2023-02-14T03:54:49.166Z,6.35
2023-02-14T03:58:00.035Z,4.05
2023-02-14T04:01:17.035Z,6.32
2023-02-14T04:04:22.968Z,8.03
2023-02-14T04:07:25.760Z,4.60
2023-02-14T04:10:28.657Z,5.87
2023-02-14T04:13:31.661Z,5.30
2023-02-14T04:16:57.282Z,4.15
2023-02-14T04:19:59.895Z,6.30
2023-02-14T04:23:03.724Z,6.20
2023-02-14T04:26:06.484Z,7.53
2023-02-14T04:29:09.383Z,4.55
2023-02-14T04:32:14.619Z,5.50
2023-02-14T04:35:17.501Z,3.80
2023-02-14T04:38:20.046Z,5.18
2023-02-14T04:41:22.866Z,9.10
2023-02-14T04:44:25.495Z,4.47
2023-02-14T04:47:28.355Z,5.47
2023-02-14T04:50:30.905Z,8.18
2023-02-14T04:53:33.758Z,7.50
2023-02-14T04:56:36.384Z,7.15
2023-02-14T04:59:39.210Z,5.25
2023-02-14T05:02:41.949Z,8.33
2023-02-14T05:05:44.835Z,5.65
2023-02-14T05:08:47.346Z,6.55
2023-02-14T05:11:50.137Z,6.32
2023-02-14T05:14:52.676Z,6.90
2023-02-14T05:17:55.599Z,5.80
2023-02-14T05:20:58.470Z,5.87
2023-02-14T05:24:01.654Z,8.38
2023-02-14T05:27:04.181Z,5.68
2023-02-14T05:30:07.649Z,7.15
2023-02-14T05:33:10.620Z,10.03
2023-02-14T05:36:13.721Z,6.40
2023-02-14T05:39:16.324Z,5.45
2023-02-14T05:42:19.174Z,8.13
2023-02-14T05:45:22.693Z,5.50
2023-02-14T05:48:25.762Z,7.57
2023-02-14T05:51:29.247Z,5.82
2023-02-14T05:54:32.152Z,4.60
2023-02-14T05:57:34.902Z,5.72
2023-02-14T06:00:40.603Z,5.10
2023-02-14T06:03:43.847Z,6.20
2023-02-14T06:06:46.366Z,5.55
2023-02-14T06:09:49.367Z,4.40
2023-02-14T06:12:53.754Z,5.37
2023-02-14T06:15:56.679Z,6.97
2023-02-14T06:18:59.382Z,7.43
2023-02-14T06:22:03.134Z,5.65
2023-02-14T06:25:06.228Z,4.07
2023-02-14T06:28:09.216Z,4.85
2023-02-14T06:31:18.000Z,6.15
2023-02-14T06:34:21.079Z,7.40
2023-02-14T06:37:23.730Z,5.55
2023-02-14T06:40:26.583Z,6.78
2023-02-14T06:43:29.113Z,7.12
2023-02-14T06:46:31.977Z,4.78
2023-02-14T06:49:34.951Z,6.43
2023-02-14T06:52:38.037Z,9.35
2023-02-14T06:55:42.916Z,7.05
2023-02-14T06:58:46.630Z,7.82
2023-02-14T07:01:49.457Z,5.80
2023-02-14T07:04:52.794Z,7.37
2023-02-14T07:07:55.545Z,5.97
2023-02-14T07:10:59.134Z,8.82
2023-02-14T07:14:02.643Z,7.22
2023-02-14T07:17:05.778Z,6.05
2023-02-14T07:20:09.753Z,8.10
2023-02-14T07:23:12.651Z,7.00
2023-02-14T07:26:18.275Z,7.35
2023-02-14T07:29:21.419Z,8.05
2023-02-14T07:32:24.111Z,6.95
2023-02-14T07:35:27.136Z,11.80
2023-02-14T07:38:30.623Z,8.45
2023-02-14T07:41:33.654Z,10.93
2023-02-14T07:44:39.042Z,8.43
2023-02-14T07:47:42.076Z,13.43
2023-02-14T07:50:44.755Z,6.43
2023-02-14T07:53:48.507Z,11.43
2023-02-14T07:56:51.134Z,9.50
2023-02-14T07:59:57.603Z,11.07
2023-02-14T08:03:02.388Z,10.90
2023-02-14T08:06:05.573Z,8.73
2023-02-14T08:09:10.153Z,6.82
2023-02-14T08:12:31.415Z,8.18
2023-02-14T08:15:53.660Z,10.77
2023-02-14T08:18:56.842Z,16.70
2023-02-14T08:21:59.698Z,14.90
2023-02-14T08:25:02.690Z,9.77
2023-02-14T08:28:05.733Z,11.32
2023-02-14T08:31:09.340Z,15.85
2023-02-14T08:34:12.025Z,13.62
2023-02-14T08:37:14.897Z,11.17
2023-02-14T08:40:17.553Z,10.20
2023-02-14T08:43:20.617Z,10.30
2023-02-14T08:46:23.352Z,12.05
2023-02-14T08:49:26.368Z,14.10
2023-02-14T08:52:29.214Z,14.80
2023-02-14T08:55:32.214Z,13.90
2023-02-14T08:58:36.020Z,13.38
2023-02-14T09:01:39.091Z,16.05
2023-02-14T09:04:42.383Z,14.40
2023-02-14T09:07:45.240Z,14.00
2023-02-14T09:10:47.849Z,18.67
2023-02-14T09:13:55.886Z,14.05
2023-02-14T09:17:01.437Z,13.43
2023-02-14T09:20:07.053Z,12.55
2023-02-14T09:23:10.010Z,15.17
2023-02-14T09:26:14.728Z,11.30
2023-02-14T09:29:18.082Z,17.65
2023-02-14T09:32:21.031Z,14.85
2023-02-14T09:35:25.392Z,12.80
2023-02-14T09:38:28.369Z,15.63
2023-02-14T09:41:30.960Z,16.02
2023-02-14T09:44:48.494Z,11.90
2023-02-14T09:48:15.800Z,14.20
2023-02-14T09:51:20.731Z,18.12
2023-02-14T09:54:27.675Z,19.73
2023-02-14T09:57:39.295Z,16.45
2023-02-14T10:00:46.655Z,14.57
2023-02-14T10:04:18.945Z,16.58
2023-02-14T10:07:27.392Z,14.23
2023-02-14T10:10:39.771Z,17.07
2023-02-14T10:14:05.724Z,17.37
2023-02-14T10:17:18.730Z,18.80
2023-02-14T10:20:42.849Z,13.45
2023-02-14T10:23:50.701Z,12.88
2023-02-14T10:26:57.869Z,10.47
2023-02-14T10:30:03.079Z,15.40
2023-02-14T10:33:18.481Z,12.90
2023-02-14T10:36:28.111Z,7.10
2023-02-14T10:39:45.782Z,10.98
2023-02-14T10:43:00.883Z,11.97
2023-02-14T10:46:13.741Z,13.45
2023-02-14T10:49:44.439Z,12.75
2023-02-14T10:52:59.142Z,9.57
2023-02-14T10:56:09.133Z,8.70
2023-02-14T10:59:48.897Z,12.03
2023-02-14T11:02:57.827Z,11.30
2023-02-14T11:06:00.509Z,8.07
2023-02-14T11:09:04.516Z,12.82
2023-02-14T11:12:08.193Z,10.43
2023-02-14T11:15:16.829Z,10.20
2023-02-14T11:18:24.972Z,11.40
2023-02-14T11:21:37.445Z,9.50
2023-02-14T11:24:42.373Z,14.32
2023-02-14T11:27:50.257Z,11.63
2023-02-14T11:30:52.988Z,9.40
2023-02-14T11:33:56.497Z,11.05
2023-02-14T11:36:59.149Z,16.33
2023-02-14T11:40:02.745Z,18.00
2023-02-14T11:43:14.403Z,13.80
2023-02-14T11:46:20.561Z,17.63
2023-02-14T11:49:25.102Z,15.30
2023-02-14T11:52:30.506Z,13.20
2023-02-14T11:55:34.537Z,12.23
2023-02-14T11:58:40.499Z,16.62
2023-02-14T12:01:46.467Z,12.23
2023-02-14T12:04:53.534Z,16.45
2023-02-14T12:07:59.048Z,14.00
2023-02-14T12:11:17.177Z,20.05
2023-02-14T12:14:24.614Z,14.32
2023-02-14T12:17:36.109Z,10.00
2023-02-14T12:20:44.573Z,12.18
2023-02-14T12:23:47.356Z,14.32
2023-02-14T12:27:11.724Z,15.63
2023-02-14T12:30:16.452Z,14.75
2023-02-14T12:33:21.688Z,11.47
2023-02-14T12:36:59.873Z,18.73
2023-02-14T12:40:27.517Z,18.15
2023-02-14T12:43:45.221Z,17.90
2023-02-14T12:46:57.361Z,17.90
2023-02-14T12:50:26.041Z,18.83
2023-02-14T12:53:48.944Z,11.95
2023-02-14T12:57:19.528Z,15.88
2023-02-14T13:00:56.754Z,24.95
2023-02-14T13:04:17.740Z,19.58
2023-02-14T13:07:29.922Z,17.67
2023-02-14T13:10:57.849Z,13.10
2023-02-14T13:14:13.220Z,15.15
2023-02-14T13:17:38.374Z,12.18
2023-02-14T13:20:52.557Z,12.37
2023-02-14T13:24:02.248Z,10.17
2023-02-14T13:27:07.554Z,15.35
2023-02-14T13:30:22.857Z,17.42
2023-02-14T13:33:35.276Z,19.95
2023-02-14T13:36:38.453Z,15.73
2023-02-14T13:39:48.805Z,14.90
2023-02-14T13:42:59.598Z,11.12
2023-02-14T13:46:02.276Z,13.52
2023-02-14T13:49:23.851Z,12.85
2023-02-14T13:52:46.498Z,12.65
2023-02-14T13:55:55.947Z,13.17
2023-02-14T13:59:01.120Z,12.25
2023-02-14T14:02:30.170Z,12.43
2023-02-14T14:05:33.409Z,14.52
2023-02-14T14:08:44.377Z,12.52
2023-02-14T14:11:47.264Z,14.47
2023-02-14T14:15:11.063Z,16.27
2023-02-14T14:18:13.860Z,10.27
2023-02-14T14:21:22.298Z,17.90
2023-02-14T14:24:28.265Z,9.77
2023-02-14T14:27:36.430Z,14.13
2023-02-14T14:30:44.719Z,12.68
2023-02-14T14:33:57.954Z,6.87
2023-02-14T14:37:03.303Z,11.07
2023-02-14T14:40:08.507Z,13.68
2023-02-14T14:43:15.143Z,16.57
2023-02-14T14:46:18.863Z,8.50
2023-02-14T14:49:22.669Z,19.10
2023-02-14T14:52:37.972Z,11.15
2023-02-14T14:55:45.595Z,13.60
2023-02-14T14:58:48.994Z,23.27
2023-02-14T15:01:54.349Z,12.88
2023-02-14T15:04:57.180Z,11.77
2023-02-14T15:08:23.013Z,14.50
2023-02-14T15:11:46.559Z,16.60
2023-02-14T15:14:54.551Z,22.97
2023-02-14T15:17:57.270Z,19.65
2023-02-14T15:21:00.425Z,14.63
2023-02-14T15:24:03.542Z,12.48
2023-02-14T15:27:14.693Z,9.98
2023-02-14T15:30:23.227Z,14.97
2023-02-14T15:33:26.799Z,12.95
2023-02-14T15:36:30.569Z,11.15
2023-02-14T15:39:38.126Z,12.88
2023-02-14T15:42:44.169Z,9.70
2023-02-14T15:45:49.570Z,13.07
2023-02-14T15:48:52.990Z,12.73
2023-02-14T15:51:55.891Z,10.82
2023-02-14T15:54:58.530Z,11.55
2023-02-14T15:58:08.243Z,8.05
2023-02-14T16:01:11.134Z,12.90
2023-02-14T16:04:14.402Z,13.95
2023-02-14T16:07:24.998Z,21.02
2023-02-14T16:10:30.348Z,9.98
2023-02-14T16:13:38.737Z,11.20
2023-02-14T16:17:01.498Z,8.03
2023-02-14T16:20:43.336Z,15.90
2023-02-14T16:24:08.253Z,16.40
2023-02-14T16:27:13.449Z,9.45
2023-02-14T16:30:17.998Z,11.12
2023-02-14T16:33:23.109Z,10.87
2023-02-14T16:36:29.412Z,8.95
2023-02-14T16:39:32.321Z,12.10
2023-02-14T16:42:37.060Z,9.38
2023-02-14T16:45:40.159Z,25.25
2023-02-14T16:48:43.769Z,11.10
2023-02-14T16:51:47.722Z,8.07
2023-02-14T16:54:50.765Z,10.45
2023-02-14T16:57:53.481Z,6.62
2023-02-14T17:00:58.603Z,16.42
2023-02-14T17:04:01.923Z,12.73
2023-02-14T17:07:06.797Z,17.50
2023-02-14T17:10:17.960Z,15.70
2023-02-14T17:13:23.054Z,7.05
2023-02-14T17:16:25.971Z,28.65
2023-02-14T17:19:28.828Z,23.67
2023-02-14T17:22:32.138Z,19.62
2023-02-14T17:25:35.604Z,21.67
2023-02-14T17:28:38.571Z,20.02
2023-02-14T17:31:41.630Z,12.25
2023-02-14T17:34:44.309Z,15.23
2023-02-14T17:37:47.383Z,22.35
2023-02-14T17:40:50.418Z,25.48
2023-02-14T17:44:00.323Z,21.85
2023-02-14T17:47:04.526Z,28.90
2023-02-14T17:50:08.428Z,31.17
2023-02-14T17:53:12.617Z,33.75
2023-02-14T17:56:21.334Z,37.28
2023-02-14T17:59:24.356Z,29.25
2023-02-14T18:02:27.936Z,33.90
2023-02-14T18:05:31.439Z,14.50
2023-02-14T18:08:36.719Z,27.33
2023-02-14T18:11:42.266Z,24.45
2023-02-14T18:14:46.838Z,13.60
2023-02-14T18:17:50.841Z,19.80
2023-02-14T18:20:54.843Z,21.50
2023-02-14T18:23:59.840Z,15.27
2023-02-14T18:27:03.025Z,19.85
2023-02-14T18:30:06.947Z,19.17
2023-02-14T18:33:09.814Z,15.55
2023-02-14T18:36:14.924Z,13.97
2023-02-14T18:39:19.954Z,15.48
2023-02-14T18:42:23.182Z,27.20
2023-02-14T18:45:26.055Z,13.30
2023-02-14T18:48:30.225Z,12.82
2023-02-14T18:51:35.759Z,13.53
2023-02-14T18:54:39.723Z,36.85
2023-02-14T18:57:42.439Z,15.10
2023-02-14T19:00:46.776Z,25.77
2023-02-14T19:03:50.732Z,19.77
2023-02-14T19:06:53.856Z,10.13
2023-02-14T19:09:56.988Z,16.20
2023-02-14T19:13:00.158Z,10.98
2023-02-14T19:16:11.368Z,11.23
2023-02-14T19:19:14.581Z,18.17
2023-02-14T19:22:17.727Z,15.20
2023-02-14T19:25:20.632Z,10.18
2023-02-14T19:28:24.056Z,8.00
2023-02-14T19:31:28.244Z,9.60
2023-02-14T19:34:33.423Z,19.70
2023-02-14T19:37:36.619Z,10.13
2023-02-14T19:40:44.268Z,12.15
2023-02-14T19:43:48.853Z,21.60
2023-02-14T19:46:54.412Z,11.40
2023-02-14T19:49:57.676Z,15.60
2023-02-14T19:53:00.324Z,45.50
2023-02-14T19:56:03.564Z,16.35
2023-02-14T19:59:10.006Z,17.85
2023-02-14T20:02:15.126Z,15.95
2023-02-14T20:05:19.402Z,20.90
2023-02-14T20:08:22.352Z,19.43
2023-02-14T20:11:39.605Z,12.68
2023-02-14T20:14:51.258Z,17.25
2023-02-14T20:17:55.564Z,5.50
2023-02-14T20:21:04.196Z,7.62
2023-02-14T20:24:20.978Z,15.37
2023-02-14T20:27:25.756Z,9.10
2023-02-14T20:30:29.121Z,7.32
2023-02-14T20:33:32.155Z,8.15
2023-02-14T20:36:35.314Z,9.73
2023-02-14T20:39:38.752Z,3.07
2023-02-14T20:42:41.858Z,13.55
2023-02-14T20:45:45.122Z,12.43
2023-02-14T20:48:50.975Z,12.25
2023-02-14T20:51:54.342Z,12.90
2023-02-14T20:54:57.576Z,16.10
2023-02-14T20:58:02.481Z,16.92
2023-02-14T21:01:08.219Z,19.20
2023-02-14T21:04:11.075Z,19.52
2023-02-14T21:07:14.220Z,15.63
2023-02-14T21:10:17.153Z,16.17
2023-02-14T21:13:20.288Z,8.02
2023-02-14T21:16:23.231Z,12.18
2023-02-14T21:19:28.598Z,18.83
2023-02-14T21:22:31.564Z,23.12
2023-02-14T21:25:34.661Z,32.37
2023-02-14T21:28:37.891Z,21.20
2023-02-14T21:31:42.469Z,14.35
2023-02-14T21:34:45.492Z,13.50
2023-02-14T21:37:48.853Z,16.10
2023-02-14T21:41:00.358Z,8.97
2023-02-14T21:44:04.222Z,10.57
2023-02-14T21:47:07.269Z,5.82
2023-02-14T21:50:29.200Z,5.72
2023-02-14T21:53:32.424Z,14.95
2023-02-14T21:56:36.829Z,14.87
2023-02-14T21:59:40.385Z,15.82
2023-02-14T22:02:43.451Z,16.20
2023-02-14T22:05:46.591Z,16.60
2023-02-14T22:08:57.328Z,16.23
2023-02-14T22:12:00.144Z,18.80
2023-02-14T22:15:02.787Z,14.05
2023-02-14T22:18:07.278Z,17.75
2023-02-14T22:21:12.392Z,18.90
2023-02-14T22:24:15.328Z,20.48
2023-02-14T22:27:17.950Z,26.83
2023-02-14T22:30:21.210Z,19.83
2023-02-14T22:33:24.419Z,25.88
2023-02-14T22:36:27.342Z,30.48
2023-02-14T22:39:30.011Z,32.55
2023-02-14T22:42:33.053Z,38.50
2023-02-14T22:45:35.574Z,29.83
2023-02-14T22:48:40.122Z,20.92
2023-02-14T22:51:42.973Z,16.98
2023-02-14T22:54:46.036Z,14.18
2023-02-14T22:57:48.521Z,15.07
2023-02-14T23:00:51.378Z,11.88
2023-02-14T23:03:58.637Z,18.55
2023-02-14T23:07:01.556Z,7.30
2023-02-14T23:10:04.356Z,15.85
2023-02-14T23:13:27.893Z,14.77
2023-02-14T23:16:49.534Z,13.25
2023-02-14T23:20:11.403Z,16.30
2023-02-14T23:23:14.058Z,13.65
2023-02-14T23:26:19.983Z,12.10
2023-02-14T23:29:22.891Z,14.37
2023-02-14T23:32:26.535Z,14.95
2023-02-14T23:35:29.054Z,13.75
2023-02-14T23:38:31.996Z,16.60
2023-02-14T23:41:50.032Z,12.70
2023-02-14T23:44:52.958Z,16.37
2023-02-14T23:47:55.524Z,20.23
2023-02-14T23:51:01.562Z,19.45
2023-02-14T23:54:04.485Z,16.45
2023-02-14T23:57:07.980Z,17.62
